Time;durP1;ratioP1;P1;durP2;ratioP2;P2;SDS_P1;SDS_P2;PMS_P1;PMS_P2;Temp;Humidity;BMP_temperature;BMP_pressure;BME280_temperature;BME280_humidity;BME280_pressure;Samples;Min_cycle;Max_cycle;Signal;HPM_P1;HPM_P2
2022/09/09 00:00:54;;;;;;;1.80;0.80;;;23.50;91.50;;;;;;5065615;28;20508;-26
2022/09/09 00:03:25;;;;;;;1.58;0.50;;;23.50;91.40;;;;;;5063882;28;20021;-26
2022/09/09 00:06:05;;;;;;;1.98;0.70;;;23.50;91.50;;;;;;5064802;22;20048;-24
2022/09/09 00:08:55;;;;;;;1.27;0.50;;;23.50;91.40;;;;;;5031975;28;20018;-25
2022/09/09 00:11:40;;;;;;;1.13;0.50;;;23.50;91.50;;;;;;5032088;28;20375;-25
2022/09/09 00:14:22;;;;;;;1.85;0.60;;;23.50;91.40;;;;;;5032528;28;20101;-24
2022/09/09 00:16:55;;;;;;;0.75;0.55;;;23.50;91.50;;;;;;5032229;28;20017;-25
2022/09/09 00:19:52;;;;;;;1.30;0.60;;;23.40;91.40;;;;;;5032097;28;20101;-24
2022/09/09 00:22:19;;;;;;;4.03;0.70;;;23.50;91.40;;;;;;5031129;28;20045;-25
2022/09/09 00:24:46;;;;;;;1.67;0.70;;;23.40;91.40;;;;;;5032015;28;20022;-24
2022/09/09 00:27:31;;;;;;;1.70;0.63;;;23.40;91.70;;;;;;5032011;28;20101;-25
2022/09/09 00:30:22;;;;;;;1.65;0.73;;;23.50;91.50;;;;;;5031762;28;20100;-25
2022/09/09 00:32:53;;;;;;;1.80;0.50;;;23.40;91.40;;;;;;5032065;28;20101;-24
2022/09/09 00:35:27;;;;;;;1.25;0.50;;;23.40;91.50;;;;;;5031948;28;20022;-24
2022/09/09 00:37:57;;;;;;;0.70;0.30;;;23.40;91.50;;;;;;5035306;28;20021;-25
2022/09/09 00:40:23;;;;;;;1.20;0.50;;;23.40;91.50;;;;;;5035712;28;20022;-24
2022/09/09 00:43:07;;;;;;;1.63;0.60;;;23.40;91.50;;;;;;5035946;28;20086;-24
2022/09/09 00:45:32;;;;;;;1.90;0.55;;;23.40;91.50;;;;;;5036033;28;20109;-24
2022/09/09 00:48:03;;;;;;;2.03;0.70;;;23.40;91.50;;;;;;5035876;28;20092;-25
2022/09/09 00:50:56;;;;;;;1.00;0.50;;;23.40;91.40;;;;;;5035655;28;20090;-25
2022/09/09 00:53:49;;;;;;;1.75;0.60;;;23.40;91.40;;;;;;5035761;28;20509;-25
2022/09/09 00:56:21;;;;;;;1.30;0.50;;;23.40;91.50;;;;;;5035712;28;20114;-25
2022/09/09 00:59:23;;;;;;;1.20;0.30;;;23.40;91.50;;;;;;5035671;28;20028;-25
2022/09/09 01:01:51;;;;;;;1.70;0.63;;;23.40;91.40;;;;;;5035544;28;20021;-25
2022/09/09 01:04:26;;;;;;;1.90;0.52;;;23.30;91.40;;;;;;5035592;28;20049;-24
2022/09/09 01:07:02;;;;;;;1.10;0.30;;;23.30;91.50;;;;;;5035409;28;20044;-25
2022/09/09 01:09:51;;;;;;;2.47;0.80;;;23.30;91.40;;;;;;5036074;28;20017;-25
2022/09/09 01:12:39;;;;;;;1.17;0.60;;;23.30;91.40;;;;;;5035407;28;20049;-24
2022/09/09 01:15:27;;;;;;;0.80;0.40;;;23.30;91.40;;;;;;5035336;28;20052;-24
2022/09/09 01:18:10;;;;;;;2.55;0.45;;;23.30;91.50;;;;;;5035231;28;20399;-25
2022/09/09 01:21:01;;;;;;;1.08;0.57;;;23.30;91.80;;;;;;5035154;28;20382;-25
2022/09/09 01:23:48;;;;;;;1.10;0.45;;;23.30;91.50;;;;;;5035135;28;20509;-24
2022/09/09 01:26:20;;;;;;;1.73;0.60;;;23.20;91.50;;;;;;5035027;28;20025;-25
2022/09/09 01:28:48;;;;;;;3.10;0.98;;;23.20;91.50;;;;;;5035005;28;20021;-24
2022/09/09 01:31:29;;;;;;;1.48;0.47;;;23.20;91.50;;;;;;5035028;28;20024;-24
2022/09/09 01:33:55;;;;;;;3.00;0.60;;;23.20;91.50;;;;;;5035098;28;20017;-25
2022/09/09 01:36:27;;;;;;;1.65;0.52;;;23.20;91.50;;;;;;5034995;28;20033;-24
2022/09/09 01:38:53;;;;;;;2.15;0.60;;;23.20;91.50;;;;;;5036451;28;20017;-24
2022/09/09 01:41:19;;;;;;;1.85;0.77;;;23.20;91.50;;;;;;5034824;28;20535;-26
2022/09/09 01:43:45;;;;;;;1.88;0.80;;;23.20;91.50;;;;;;5034847;28;20026;-25
2022/09/09 01:46:12;;;;;;;2.22;0.60;;;23.20;91.50;;;;;;5034790;28;20018;-25
2022/09/09 01:48:38;;;;;;;1.13;0.40;;;23.20;91.60;;;;;;5033702;28;20029;-25
2022/09/09 01:51:04;;;;;;;1.17;0.52;;;23.20;91.60;;;;;;5034567;28;20026;-25
2022/09/09 01:53:30;;;;;;;0.65;0.32;;;23.20;91.60;;;;;;5034549;28;20486;-25
2022/09/09 01:56:19;;;;;;;1.35;0.45;;;23.20;91.60;;;;;;5034892;28;20382;-24
2022/09/09 01:59:15;;;;;;;1.73;0.60;;;23.20;91.50;;;;;;5034685;28;20030;-24
2022/09/09 02:02:16;;;;;;;3.65;0.50;;;23.20;91.50;;;;;;5034352;28;20044;-25
2022/09/09 02:04:46;;;;;;;1.02;0.32;;;23.20;91.50;;;;;;5034364;28;20554;-25
2022/09/09 02:07:15;;;;;;;2.70;0.63;;;23.20;91.60;;;;;;5034397;28;20029;-24
2022/09/09 02:09:45;;;;;;;1.85;0.50;;;23.10;91.50;;;;;;5034251;28;20022;-25
2022/09/09 02:12:18;;;;;;;1.00;0.50;;;23.10;91.50;;;;;;5034174;28;20025;-24
2022/09/09 02:14:51;;;;;;;1.65;0.73;;;23.10;91.80;;;;;;5034248;28;20076;-24
2022/09/09 02:17:25;;;;;;;1.52;0.60;;;23.10;91.50;;;;;;5034441;28;20478;-24
2022/09/09 02:20:02;;;;;;;2.10;0.73;;;23.10;91.50;;;;;;5034316;28;20221;-25
2022/09/09 02:22:34;;;;;;;5.13;0.63;;;23.10;91.50;;;;;;5033974;28;20025;-25
2022/09/09 02:25:00;;;;;;;1.52;0.60;;;23.10;91.50;;;;;;5034128;28;20482;-24
2022/09/09 02:27:26;;;;;;;1.42;0.63;;;23.10;91.50;;;;;;5034153;28;20033;-25
2022/09/09 02:29:55;;;;;;;0.77;0.40;;;23.10;91.50;;;;;;5033971;28;20049;-24
2022/09/09 02:32:23;;;;;;;2.33;0.60;;;23.10;91.50;;;;;;5033895;28;20036;-25
2022/09/09 02:35:05;;;;;;;1.08;0.40;;;23.00;91.50;;;;;;5033717;28;20040;-24
2022/09/09 02:37:36;;;;;;;1.67;0.60;;;23.00;91.40;;;;;;5033810;28;20037;-24
2022/09/09 02:40:05;;;;;;;2.45;0.60;;;23.00;91.50;;;;;;5033642;28;20116;-25
2022/09/09 02:42:31;;;;;;;2.25;0.65;;;23.00;91.50;;;;;;5033720;28;20033;-24
2022/09/09 02:44:57;;;;;;;0.82;0.45;;;23.00;91.50;;;;;;5033654;28;20355;-25
2022/09/09 02:47:47;;;;;;;1.77;0.60;;;23.00;91.50;;;;;;5033505;28;20083;-24
2022/09/09 02:50:14;;;;;;;0.85;0.30;;;23.00;91.40;;;;;;4996863;28;20025;-25
2022/09/09 02:53:01;;;;;;;2.95;0.70;;;23.00;91.40;;;;;;5033569;28;20033;-24
2022/09/09 02:55:49;;;;;;;1.58;0.50;;;23.00;91.40;;;;;;5033508;28;20068;-24
2022/09/09 02:58:17;;;;;;;1.88;0.60;;;23.00;91.40;;;;;;5033511;28;20033;-24
2022/09/09 03:00:48;;;;;;;1.55;0.57;;;23.00;91.50;;;;;;5033220;28;20393;-24
2022/09/09 03:03:15;;;;;;;1.50;0.40;;;23.00;91.50;;;;;;5033454;28;20033;-25
2022/09/09 03:05:42;;;;;;;1.50;0.40;;;23.00;91.40;;;;;;5033273;28;20037;-24
2022/09/09 03:08:07;;;;;;;2.67;0.65;;;23.00;91.40;;;;;;5033223;28;20021;-25
2022/09/09 03:10:34;;;;;;;1.48;0.52;;;23.00;91.40;;;;;;5033499;28;20025;-24
2022/09/09 03:13:00;;;;;;;1.35;0.57;;;23.00;91.40;;;;;;5033241;28;20625;-24
2022/09/09 03:15:29;;;;;;;0.95;0.40;;;22.90;91.40;;;;;;5033113;28;20033;-24
2022/09/09 03:17:56;;;;;;;0.77;0.43;;;22.90;91.40;;;;;;5033191;28;20072;-24
2022/09/09 03:20:23;;;;;;;0.88;0.47;;;22.90;91.40;;;;;;5032797;28;20104;-24
2022/09/09 03:22:49;;;;;;;0.93;0.40;;;22.90;91.40;;;;;;5032809;28;20033;-24
2022/09/09 03:25:15;;;;;;;2.17;0.70;;;22.90;91.40;;;;;;5032885;28;20029;-24
2022/09/09 03:27:40;;;;;;;1.60;0.45;;;22.90;91.40;;;;;;5032988;28;20434;-25
2022/09/09 03:30:07;;;;;;;1.92;0.57;;;22.90;91.40;;;;;;5032809;28;20033;-24
2022/09/09 03:32:32;;;;;;;1.35;0.45;;;22.90;91.40;;;;;;5032889;28;20096;-24
2022/09/09 03:34:58;;;;;;;0.93;0.40;;;22.90;91.40;;;;;;5032703;28;20104;-24
2022/09/09 03:37:24;;;;;;;1.25;0.52;;;22.90;91.40;;;;;;5032612;28;20025;-24
2022/09/09 03:39:49;;;;;;;1.52;0.50;;;22.90;91.40;;;;;;5032585;28;20486;-24
2022/09/09 03:42:18;;;;;;;1.17;0.70;;;22.90;91.40;;;;;;5032577;28;20368;-24
2022/09/09 03:44:49;;;;;;;1.25;0.40;;;22.90;91.40;;;;;;5032612;28;20038;-24
2022/09/09 03:47:17;;;;;;;0.52;0.40;;;22.90;91.40;;;;;;5032578;28;20017;-24
2022/09/09 03:49:42;;;;;;;1.15;0.40;;;22.80;91.30;;;;;;5032390;28;20026;-24
2022/09/09 03:52:09;;;;;;;2.15;0.60;;;22.80;91.70;;;;;;5032262;28;20144;-24
2022/09/09 03:54:35;;;;;;;1.92;0.60;;;22.80;91.30;;;;;;5032499;28;20025;-24
2022/09/09 03:57:01;;;;;;;2.90;0.50;;;22.80;91.30;;;;;;5032355;28;20032;-24
2022/09/09 03:59:27;;;;;;;1.60;0.55;;;22.80;91.30;;;;;;5032332;28;20033;-24
2022/09/09 04:01:52;;;;;;;1.15;0.50;;;22.80;91.30;;;;;;5032262;28;20151;-25
2022/09/09 04:04:19;;;;;;;0.88;0.40;;;22.80;91.30;;;;;;5032272;28;20482;-25
2022/09/09 04:06:45;;;;;;;1.40;0.50;;;22.80;91.30;;;;;;5032024;28;20029;-24
2022/09/09 04:09:11;;;;;;;0.73;0.40;;;22.80;91.30;;;;;;5032094;28;20028;-24
2022/09/09 04:11:37;;;;;;;1.88;0.50;;;22.80;91.30;;;;;;5031691;28;20018;-23
2022/09/09 04:14:04;;;;;;;1.30;0.40;;;22.80;91.30;;;;;;5032135;28;20025;-24
2022/09/09 04:16:29;;;;;;;0.90;0.45;;;22.80;91.30;;;;;;5032093;28;20025;-25
2022/09/09 04:18:55;;;;;;;1.42;0.50;;;22.80;91.30;;;;;;5031918;28;20026;-24
2022/09/09 04:21:21;;;;;;;1.55;0.57;;;22.80;91.30;;;;;;5031880;28;20021;-24
2022/09/09 04:23:47;;;;;;;1.65;0.50;;;22.70;91.30;;;;;;5032153;28;20398;-24
2022/09/09 04:26:12;;;;;;;2.25;0.40;;;22.80;91.20;;;;;;5031969;28;20071;-24
2022/09/09 04:28:38;;;;;;;0.98;0.43;;;22.80;91.30;;;;;;5031867;28;20048;-24
2022/09/09 04:31:09;;;;;;;0.60;0.30;;;22.80;91.30;;;;;;5031986;28;20029;-25
2022/09/09 04:33:35;;;;;;;4.72;0.70;;;22.80;91.20;;;;;;5031883;28;20037;-24
2022/09/09 04:36:01;;;;;;;1.10;0.40;;;22.70;91.20;;;;;;5031867;28;20483;-25
2022/09/09 04:38:26;;;;;;;1.25;0.40;;;22.80;91.30;;;;;;5031757;28;20029;-24
2022/09/09 04:40:53;;;;;;;0.93;0.40;;;22.70;91.30;;;;;;5031893;28;20021;-24
2022/09/09 04:43:20;;;;;;;1.08;0.43;;;22.70;91.20;;;;;;5031805;28;20433;-24
2022/09/09 04:45:54;;;;;;;0.98;0.50;;;22.70;91.30;;;;;;5031833;28;20017;-24
2022/09/09 04:48:20;;;;;;;0.75;0.40;;;22.70;91.30;;;;;;5031553;28;20029;-24
2022/09/09 04:51:01;;;;;;;1.27;0.50;;;22.70;91.30;;;;;;5031648;28;20028;-25
2022/09/09 04:53:27;;;;;;;0.90;0.40;;;22.70;91.20;;;;;;5031757;28;20032;-24
2022/09/09 04:56:02;;;;;;;0.95;0.40;;;22.70;91.30;;;;;;5031663;28;20022;-24
2022/09/09 04:58:27;;;;;;;1.38;0.50;;;22.70;91.30;;;;;;5031652;28;20102;-24
2022/09/09 05:00:53;;;;;;;1.90;0.55;;;22.70;91.30;;;;;;5031431;28;20439;-24
2022/09/09 05:03:19;;;;;;;0.90;0.38;;;22.70;91.60;;;;;;5031540;28;20033;-24
2022/09/09 05:05:44;;;;;;;2.33;0.60;;;22.70;91.30;;;;;;5031454;28;20022;-24
2022/09/09 05:08:10;;;;;;;2.15;0.52;;;22.70;91.30;;;;;;5031586;28;20379;-24
2022/09/09 05:10:38;;;;;;;3.42;0.43;;;22.60;91.20;;;;;;5031434;28;20025;-24
2022/09/09 05:13:04;;;;;;;0.75;0.45;;;22.60;91.20;;;;;;5031542;28;20108;-24
2022/09/09 05:15:30;;;;;;;2.40;0.57;;;22.60;91.30;;;;;;5031337;28;20029;-24
2022/09/09 05:18:00;;;;;;;1.70;0.40;;;22.60;91.30;;;;;;5031658;28;20061;-25
2022/09/09 05:20:27;;;;;;;1.17;0.43;;;22.60;91.30;;;;;;5031354;28;20036;-24
2022/09/09 05:22:56;;;;;;;1.17;0.50;;;22.60;91.30;;;;;;5031732;28;20056;-25
2022/09/09 05:25:25;;;;;;;3.70;0.75;;;22.60;91.30;;;;;;5035184;28;20028;-25
2022/09/09 05:27:51;;;;;;;2.40;0.40;;;22.60;91.30;;;;;;5035011;28;20017;-24
2022/09/09 05:30:18;;;;;;;1.35;0.47;;;22.60;91.30;;;;;;5034925;28;20017;-24
2022/09/09 05:32:44;;;;;;;0.98;0.50;;;22.60;91.30;;;;;;5035100;28;20025;-24
2022/09/09 05:35:10;;;;;;;0.68;0.40;;;22.60;91.30;;;;;;5035169;28;20483;-25
2022/09/09 05:37:35;;;;;;;1.75;0.40;;;22.60;91.30;;;;;;5034992;28;20026;-24
2022/09/09 05:40:01;;;;;;;1.40;0.43;;;22.60;91.30;;;;;;5034751;28;20037;-24
2022/09/09 05:42:30;;;;;;;1.83;0.50;;;22.60;91.40;;;;;;5034779;28;20132;-24
2022/09/09 05:44:57;;;;;;;1.58;0.43;;;22.50;91.40;;;;;;5035178;28;20028;-24
2022/09/09 05:47:23;;;;;;;1.63;0.68;;;22.50;91.40;;;;;;5035031;28;20477;-24
2022/09/09 05:49:49;;;;;;;1.52;0.57;;;22.50;91.40;;;;;;5034731;28;20033;-24
2022/09/09 05:52:14;;;;;;;1.63;0.50;;;22.50;91.50;;;;;;5034650;28;20382;-24
2022/09/09 05:54:41;;;;;;;1.55;0.40;;;22.50;91.50;;;;;;5034616;28;20041;-24
2022/09/09 05:57:07;;;;;;;2.13;0.68;;;22.50;91.50;;;;;;5034569;28;20100;-25
2022/09/09 05:59:32;;;;;;;2.30;0.60;;;22.40;91.40;;;;;;5034597;28;20105;-24
2022/09/09 06:01:58;;;;;;;1.23;0.45;;;22.40;91.40;;;;;;5034464;28;20466;-24
2022/09/09 06:04:24;;;;;;;1.40;0.50;;;22.40;91.50;;;;;;5034523;28;20017;-24
2022/09/09 06:06:50;;;;;;;1.77;0.55;;;22.40;91.50;;;;;;5072278;22;20544;-25
2022/09/09 06:09:16;;;;;;;0.80;0.40;;;22.40;91.50;;;;;;5054308;28;20057;-23
2022/09/09 06:11:42;;;;;;;2.38;0.45;;;22.40;91.50;;;;;;5054420;28;20501;-23
2022/09/09 06:14:08;;;;;;;1.73;0.60;;;22.40;91.60;;;;;;5054326;28;20386;-22
2022/09/09 06:16:35;;;;;;;1.00;0.40;;;22.40;91.60;;;;;;5054192;28;20025;-23
2022/09/09 06:19:02;;;;;;;1.00;0.45;;;22.40;91.60;;;;;;5054234;28;20028;-23
2022/09/09 06:21:30;;;;;;;3.13;0.70;;;22.40;91.60;;;;;;5054148;28;20051;-23
2022/09/09 06:23:56;;;;;;;1.30;0.50;;;22.40;91.60;;;;;;5054056;28;20390;-23
2022/09/09 06:26:30;;;;;;;2.00;0.55;;;22.40;91.60;;;;;;5053976;28;20481;-23
2022/09/09 06:28:57;;;;;;;2.72;0.50;;;22.30;91.50;;;;;;5054017;28;20025;-23
2022/09/09 06:31:25;;;;;;;1.17;0.50;;;22.40;91.60;;;;;;5053876;28;20025;-23
2022/09/09 06:33:53;;;;;;;1.13;0.63;;;22.40;91.60;;;;;;5053683;28;20029;-23
2022/09/09 06:36:31;;;;;;;1.52;0.38;;;22.40;91.60;;;;;;5053804;28;20032;-23
2022/09/09 06:38:57;;;;;;;1.05;0.60;;;22.40;91.60;;;;;;5053751;28;20095;-23
2022/09/09 06:41:26;;;;;;;1.42;0.52;;;22.40;91.60;;;;;;5053917;28;20474;-23
2022/09/09 06:43:52;;;;;;;2.10;0.60;;;22.40;91.60;;;;;;5053702;28;20051;-23
2022/09/09 06:46:21;;;;;;;0.90;0.43;;;22.40;91.60;;;;;;5053663;28;20462;-23
2022/09/09 06:48:47;;;;;;;0.75;0.50;;;22.40;91.60;;;;;;5054211;28;20025;-23
2022/09/09 06:51:23;;;;;;;1.05;0.43;;;22.40;91.60;;;;;;5053415;28;20032;-23
2022/09/09 06:53:54;;;;;;;0.82;0.30;;;22.40;91.60;;;;;;5035726;28;20075;-23
2022/09/09 06:56:42;;;;;;;1.17;0.50;;;22.40;91.60;;;;;;5053450;28;20114;-23
2022/09/09 06:59:09;;;;;;;1.40;0.70;;;22.40;91.60;;;;;;5053299;28;20079;-23
2022/09/09 07:01:39;;;;;;;1.42;0.45;;;22.40;91.60;;;;;;5053175;28;20029;-23
2022/09/09 07:04:08;;;;;;;1.23;0.40;;;22.40;91.60;;;;;;5053365;28;20017;-23
2022/09/09 07:06:40;;;;;;;2.03;0.45;;;22.40;91.60;;;;;;5053114;28;20087;-23
2022/09/09 07:09:11;;;;;;;1.35;0.75;;;22.40;91.60;;;;;;5053090;28;20082;-23
2022/09/09 07:11:39;;;;;;;2.42;0.40;;;22.40;91.60;;;;;;5053160;28;20013;-23
2022/09/09 07:14:05;;;;;;;1.65;0.52;;;22.40;91.60;;;;;;5052999;28;20087;-23
2022/09/09 07:16:34;;;;;;;1.13;0.40;;;22.40;91.60;;;;;;5035093;28;20021;-23
2022/09/09 07:19:02;;;;;;;0.70;0.47;;;22.40;91.60;;;;;;5053056;28;20021;-23
2022/09/09 07:21:29;;;;;;;1.42;0.55;;;22.40;91.60;;;;;;5053015;28;20088;-23
2022/09/09 07:23:55;;;;;;;2.35;0.57;;;22.40;91.60;;;;;;5052946;28;20037;-23
2022/09/09 07:26:25;;;;;;;1.05;0.50;;;22.50;91.60;;;;;;5052867;28;20110;-23
2022/09/09 07:28:51;;;;;;;1.30;0.50;;;22.50;91.60;;;;;;5052628;28;20074;-23
2022/09/09 07:31:20;;;;;;;1.42;0.43;;;22.50;91.60;;;;;;5052785;28;20036;-23
2022/09/09 07:33:47;;;;;;;2.10;0.50;;;22.50;91.60;;;;;;5034839;28;20024;-23
2022/09/09 07:36:27;;;;;;;1.08;0.60;;;22.50;91.60;;;;;;5052634;28;20117;-23
2022/09/09 07:38:55;;;;;;;1.17;0.63;;;22.50;91.60;;;;;;5052476;28;20017;-23
2022/09/09 07:41:31;;;;;;;0.95;0.50;;;22.40;91.60;;;;;;5052575;28;20104;-23
2022/09/09 07:43:56;;;;;;;5.30;0.50;;;22.50;91.60;;;;;;5052557;28;20120;-23
2022/09/09 07:46:25;;;;;;;1.17;0.52;;;22.50;91.60;;;;;;5051913;28;20044;-23
2022/09/09 07:48:54;;;;;;;2.22;0.70;;;22.50;91.60;;;;;;5034481;28;20474;-23
2022/09/09 07:51:22;;;;;;;0.82;0.40;;;22.60;91.60;;;;;;5052426;28;20208;-23
2022/09/09 07:53:52;;;;;;;1.27;0.47;;;22.60;91.50;;;;;;5052327;28;20051;-23
2022/09/09 07:56:19;;;;;;;1.20;0.57;;;22.60;91.50;;;;;;5052384;28;20071;-23
2022/09/09 07:58:46;;;;;;;1.50;0.60;;;22.70;91.50;;;;;;5052172;28;20025;-23
2022/09/09 08:01:18;;;;;;;1.42;0.60;;;22.80;91.50;;;;;;5052250;28;20029;-23
2022/09/09 08:03:45;;;;;;;2.10;0.45;;;22.80;91.50;;;;;;5052221;28;20036;-23
2022/09/09 08:06:13;;;;;;;3.17;0.70;;;22.80;91.50;;;;;;5051852;28;20075;-23
2022/09/09 08:08:41;;;;;;;0.90;0.40;;;22.80;91.50;;;;;;5051991;28;20017;-23
2022/09/09 08:11:15;;;;;;;1.10;0.70;;;22.80;91.50;;;;;;5052039;28;20022;-23
2022/09/09 08:13:42;;;;;;;0.98;0.50;;;22.80;91.50;;;;;;5052430;28;20595;-23
2022/09/09 08:16:13;;;;;;;1.38;0.60;;;22.80;91.40;;;;;;5052001;28;20029;-23
2022/09/09 08:18:39;;;;;;;1.20;0.55;;;22.90;91.40;;;;;;5051847;28;20103;-23
2022/09/09 08:21:06;;;;;;;2.25;0.52;;;22.90;91.30;;;;;;5051973;28;20447;-23
2022/09/09 08:23:33;;;;;;;0.90;0.60;;;22.90;91.30;;;;;;5051911;28;20483;-23
2022/09/09 08:26:14;;;;;;;1.42;0.57;;;22.90;91.30;;;;;;5051821;28;20029;-23
2022/09/09 08:28:42;;;;;;;2.65;0.40;;;22.90;91.30;;;;;;5051763;28;20032;-23
2022/09/09 08:31:13;;;;;;;0.75;0.43;;;23.00;91.30;;;;;;5051709;28;20070;-23
2022/09/09 08:33:39;;;;;;;0.90;0.43;;;23.00;91.40;;;;;;5051968;28;20028;-23
2022/09/09 08:36:08;;;;;;;2.55;0.77;;;22.90;91.40;;;;;;5051716;28;20021;-23
2022/09/09 08:38:34;;;;;;;0.77;0.55;;;22.90;91.40;;;;;;5051787;28;20029;-23
2022/09/09 08:41:21;;;;;;;0.80;0.32;;;22.90;91.40;;;;;;5051858;28;20036;-23
2022/09/09 08:43:48;;;;;;;3.75;0.55;;;22.90;91.40;;;;;;5052094;28;20036;-22
2022/09/09 08:46:43;;;;;;;1.30;0.43;;;22.90;91.40;;;;;;5052424;28;20017;-22
2022/09/09 08:49:27;;;;;;;0.95;0.40;;;22.90;91.40;;;;;;5052541;28;20096;-23
2022/09/09 08:51:55;;;;;;;0.88;0.35;;;23.00;91.40;;;;;;5052862;28;20021;-23
2022/09/09 08:54:21;;;;;;;2.33;0.65;;;22.90;91.40;;;;;;5055769;28;20029;-23
2022/09/09 08:56:47;;;;;;;3.95;0.55;;;22.90;91.40;;;;;;5054232;28;20033;-23
2022/09/09 08:59:19;;;;;;;1.80;0.52;;;22.80;91.40;;;;;;5055372;28;20476;-23
2022/09/09 09:02:04;;;;;;;1.55;0.55;;;22.80;91.50;;;;;;5055837;28;20025;-23
2022/09/09 09:04:34;;;;;;;0.47;0.30;;;22.70;91.60;;;;;;5055500;28;20021;-23
2022/09/09 09:07:33;;;;;;;1.55;0.63;;;22.70;91.70;;;;;;5055319;28;20036;-23
2022/09/09 09:10:33;;;;;;;1.60;0.60;;;22.70;91.90;;;;;;5055242;28;20172;-23
2022/09/09 09:13:01;;;;;;;1.38;0.50;;;22.70;92.00;;;;;;5055320;28;20037;-23
2022/09/09 09:15:38;;;;;;;1.90;0.55;;;22.60;92.10;;;;;;5055327;28;20032;-23
2022/09/09 09:18:04;;;;;;;4.45;0.65;;;22.60;92.10;;;;;;5056315;28;20099;-23
2022/09/09 09:20:55;;;;;;;3.28;0.75;;;22.40;91.60;;;;;;5055227;28;20094;-23
2022/09/09 09:23:24;;;;;;;7.55;0.77;;;22.30;92.00;;;;;;5055055;28;20025;-23
2022/09/09 09:25:53;;;;;;;3.33;0.77;;;22.30;92.10;;;;;;5055124;28;20025;-23
2022/09/09 09:28:24;;;;;;;4.65;1.08;;;22.40;92.10;;;;;;5055159;28;20048;-23
2022/09/09 09:30:57;;;;;;;2.53;0.60;;;22.50;92.00;;;;;;5055048;28;20021;-23
2022/09/09 09:33:35;;;;;;;2.67;0.60;;;22.60;91.90;;;;;;5037227;28;20025;-23
2022/09/09 09:36:01;;;;;;;2.97;1.00;;;22.70;91.90;;;;;;5054935;28;20052;-23
2022/09/09 09:38:28;;;;;;;3.35;0.82;;;22.80;91.80;;;;;;5054938;28;20033;-23
2022/09/09 09:40:58;;;;;;;2.45;0.70;;;22.80;91.80;;;;;;5054777;28;20555;-23
2022/09/09 09:43:35;;;;;;;2.63;0.70;;;22.80;91.70;;;;;;5054801;28;20116;-23
2022/09/09 09:46:04;;;;;;;2.22;0.70;;;22.90;91.70;;;;;;5037138;28;20017;-23
2022/09/09 09:48:30;;;;;;;4.80;0.70;;;22.90;91.70;;;;;;5054675;28;20029;-23
2022/09/09 09:51:18;;;;;;;2.10;0.63;;;23.00;91.70;;;;;;5054695;28;20052;-23
2022/09/09 09:53:44;;;;;;;2.33;0.60;;;23.00;91.60;;;;;;5054738;28;20500;-23
2022/09/09 09:56:13;;;;;;;3.90;0.73;;;23.10;91.60;;;;;;5054524;28;20075;-23
2022/09/09 09:58:44;;;;;;;3.13;0.60;;;23.10;91.50;;;;;;5054312;28;20028;-23
2022/09/09 10:01:29;;;;;;;3.13;0.50;;;23.10;91.50;;;;;;5036485;28;20065;-23
2022/09/09 10:03:59;;;;;;;3.13;0.55;;;23.20;91.50;;;;;;5054388;28;20078;-23
2022/09/09 10:06:38;;;;;;;3.05;0.73;;;23.10;91.50;;;;;;5054294;28;20036;-23
2022/09/09 10:09:20;;;;;;;2.97;0.60;;;23.10;91.40;;;;;;5053939;28;20033;-23
2022/09/09 10:12:10;;;;;;;3.13;0.90;;;23.20;91.50;;;;;;5054376;28;20025;-23
2022/09/09 10:14:58;;;;;;;2.78;0.82;;;23.20;91.50;;;;;;5054386;28;20105;-23
2022/09/09 10:17:49;;;;;;;1.27;0.50;;;23.20;91.50;;;;;;5054063;28;20020;-23
2022/09/09 10:20:41;;;;;;;3.58;0.60;;;23.20;91.40;;;;;;5054021;28;20017;-23
2022/09/09 10:23:51;;;;;;;2.22;0.65;;;23.20;91.40;;;;;;5054106;28;20108;-23
2022/09/09 10:26:33;;;;;;;2.63;0.52;;;23.30;91.40;;;;;;5054194;28;20033;-23
2022/09/09 10:29:11;;;;;;;2.03;0.45;;;23.30;91.30;;;;;;5054125;28;20100;-23
2022/09/09 10:32:02;;;;;;;1.65;0.47;;;23.30;91.30;;;;;;5053984;28;20390;-23
2022/09/09 10:34:31;;;;;;;2.47;0.70;;;23.40;91.20;;;;;;5053990;28;20433;-23
2022/09/09 10:36:58;;;;;;;1.85;0.43;;;23.40;91.20;;;;;;5053796;28;20100;-23
2022/09/09 10:39:32;;;;;;;2.72;0.50;;;23.50;91.10;;;;;;5053730;28;20025;-23
2022/09/09 10:42:08;;;;;;;2.17;0.60;;;23.50;91.10;;;;;;5054412;28;20414;-23
2022/09/09 10:44:50;;;;;;;3.28;0.77;;;23.50;91.10;;;;;;5053682;28;20032;-24
2022/09/09 10:47:52;;;;;;;1.60;0.60;;;23.50;91.00;;;;;;5053679;28;20025;-24
2022/09/09 10:51:00;;;;;;;2.45;0.55;;;23.50;91.10;;;;;;5053520;28;20013;-23
2022/09/09 10:53:34;;;;;;;3.15;0.55;;;23.40;91.10;;;;;;5007056;28;20028;-23
2022/09/09 10:56:09;;;;;;;1.83;0.60;;;23.40;91.10;;;;;;5053453;28;20071;-23
2022/09/09 10:58:44;;;;;;;1.75;0.50;;;23.40;91.10;;;;;;5053304;28;20033;-23
2022/09/09 11:01:24;;;;;;;1.23;0.47;;;23.40;91.10;;;;;;5053721;28;20051;-23
2022/09/09 11:03:58;;;;;;;2.38;0.50;;;23.40;91.10;;;;;;5053563;28;20113;-23
2022/09/09 11:06:32;;;;;;;1.80;0.57;;;23.40;91.10;;;;;;5053182;28;20029;-23
2022/09/09 11:09:02;;;;;;;1.73;0.45;;;23.30;91.00;;;;;;5053183;28;20028;-23
2022/09/09 11:11:43;;;;;;;2.63;0.80;;;23.20;91.00;;;;;;5053005;28;20017;-23
2022/09/09 11:14:42;;;;;;;3.88;0.70;;;23.20;91.00;;;;;;5053162;28;20478;-23
2022/09/09 11:17:18;;;;;;;1.90;0.50;;;23.10;91.10;;;;;;5020191;28;20116;-23
2022/09/09 11:19:44;;;;;;;3.25;0.63;;;23.10;91.30;;;;;;5053474;28;20032;-23
2022/09/09 11:22:34;;;;;;;1.45;0.60;;;23.00;91.30;;;;;;5033947;28;20075;-23
2022/09/09 11:25:36;;;;;;;1.45;0.50;;;23.00;91.40;;;;;;5035248;28;20032;-23
2022/09/09 11:28:22;;;;;;;1.33;0.40;;;22.90;91.50;;;;;;5052714;28;20395;-23
2022/09/09 11:31:19;;;;;;;1.25;0.43;;;22.90;91.90;;;;;;5001918;28;20478;-23
2022/09/09 11:34:11;;;;;;;1.55;0.50;;;22.90;91.70;;;;;;5053094;28;20025;-23
2022/09/09 11:36:46;;;;;;;1.92;0.60;;;22.80;91.80;;;;;;5052617;28;20025;-23
2022/09/09 11:39:35;;;;;;;1.70;0.57;;;22.80;91.80;;;;;;5052582;28;20025;-23
2022/09/09 11:42:13;;;;;;;1.17;0.50;;;22.80;91.80;;;;;;5052573;28;20025;-23
2022/09/09 11:44:38;;;;;;;2.85;0.57;;;22.80;91.90;;;;;;5052642;28;20060;-23
2022/09/09 11:47:29;;;;;;;1.27;0.40;;;22.80;91.90;;;;;;5052380;28;20455;-23
2022/09/09 11:50:15;;;;;;;1.33;0.32;;;22.80;92.00;;;;;;5052462;28;20024;-24
2022/09/09 11:52:46;;;;;;;1.58;0.70;;;22.80;92.00;;;;;;5035083;28;20071;-24
2022/09/09 11:55:36;;;;;;;3.28;0.50;;;22.80;92.00;;;;;;5052211;28;20021;-23
2022/09/09 11:58:16;;;;;;;1.13;0.22;;;22.40;91.30;;;;;;5052318;28;20025;-23
2022/09/09 12:00:45;;;;;;;2.05;0.38;;;22.00;91.40;;;;;;5052275;28;20069;-23
2022/09/09 12:03:33;;;;;;;2.00;0.40;;;21.80;92.20;;;;;;5052270;28;20485;-23
2022/09/09 12:06:08;;;;;;;1.15;0.40;;;22.00;92.90;;;;;;5075249;22;20424;-26
2022/09/09 12:08:36;;;;;;;;;;;22.10;93.40;;;;;;5032602;28;20036;-25
2022/09/09 12:11:05;;;;;;;2.08;0.45;;;22.20;93.70;;;;;;5032326;28;19987;-25
2022/09/09 12:13:31;;;;;;;1.85;0.25;;;22.30;94.00;;;;;;5032262;28;20044;-27
2022/09/09 12:16:02;;;;;;;1.35;0.40;;;22.40;94.10;;;;;;5032147;28;20036;-25
2022/09/09 12:18:44;;;;;;;0.85;0.38;;;22.60;94.60;;;;;;5032057;28;20041;-25
2022/09/09 12:21:26;;;;;;;1.23;0.40;;;22.70;94.60;;;;;;5032106;28;20204;-25
2022/09/09 12:24:03;;;;;;;2.03;0.50;;;22.80;94.50;;;;;;5031979;28;20561;-25
2022/09/09 12:26:46;;;;;;;1.17;0.40;;;22.80;94.40;;;;;;5032019;28;20025;-25
2022/09/09 12:29:46;;;;;;;0.73;0.20;;;22.90;94.30;;;;;;5032221;28;20497;-25
2022/09/09 12:32:25;;;;;;;1.77;0.40;;;23.00;94.20;;;;;;5031910;28;20029;-25
2022/09/09 12:35:07;;;;;;;1.67;0.50;;;23.00;94.30;;;;;;5032138;28;20520;-25
2022/09/09 12:37:40;;;;;;;3.78;0.40;;;23.10;94.40;;;;;;5031850;28;20509;-25
2022/09/09 12:40:20;;;;;;;1.25;0.20;;;23.20;94.80;;;;;;5032183;28;20382;-25
2022/09/09 12:42:45;;;;;;;1.08;0.40;;;23.30;94.70;;;;;;5032152;28;20491;-25
2022/09/09 12:45:26;;;;;;;2.13;0.30;;;23.30;94.70;;;;;;5031877;28;20057;-25
2022/09/09 12:48:01;;;;;;;1.67;0.40;;;23.30;94.30;;;;;;5031790;28;20017;-25
2022/09/09 12:50:36;;;;;;;0.95;0.20;;;23.20;94.20;;;;;;5031661;28;20057;-25
2022/09/09 12:53:16;;;;;;;1.70;0.47;;;23.20;94.30;;;;;;5031743;28;20083;-25
2022/09/09 12:55:51;;;;;;;1.20;0.20;;;23.20;94.20;;;;;;5031773;28;20021;-25
2022/09/09 12:58:19;;;;;;;0.85;0.22;;;23.20;94.20;;;;;;5031732;28;20021;-25
2022/09/09 13:00:59;;;;;;;1.90;0.38;;;23.30;94.30;;;;;;5031941;28;20033;-25
2022/09/09 13:03:25;;;;;;;2.05;0.30;;;23.30;94.30;;;;;;5031733;28;20407;-25
2022/09/09 13:05:53;;;;;;;1.02;0.30;;;23.40;94.30;;;;;;5031520;28;20017;-25
2022/09/09 13:08:22;;;;;;;0.68;0.22;;;23.40;94.10;;;;;;5031526;28;20025;-25
2022/09/09 13:10:56;;;;;;;0.65;0.22;;;23.40;94.10;;;;;;5031501;28;20063;-26
2022/09/09 13:13:29;;;;;;;1.13;0.32;;;23.50;94.00;;;;;;5031757;28;20029;-26
2022/09/09 13:16:00;;;;;;;1.45;0.43;;;23.50;94.00;;;;;;5031636;28;20030;-26
2022/09/09 13:18:33;;;;;;;1.05;0.30;;;23.60;94.00;;;;;;5031436;28;20021;-26